Flight Track Log - Related Links

Times and Time Zones

All times are in EDT time to prevent confusion due to time zone crossing. See the N5262Y flight status page for this flight to view local times or setup timezone preferences in your user account.

Time Position Orientation Groundspeed Altitude Reporting Facility
EDT Latitude Longitude Course Direction KTS MPH feet Rate Location/Type
Tue 12:12:43 AM 42.6122 -113.8933 86° East 63 72 8,500  Level Salt Lake Center
Tue 12:13:44 AM 42.5847 -113.8664 144° Southeast 93 107 8,900 295 Climbing Salt Lake Center
Tue 12:14:45 AM 42.5642 -113.8461 144° Southeast 94 108 9,100 293 Climbing Salt Lake Center
Tue 12:15:47 AM 42.5439 -113.8158 132° Southeast 97 112 9,500 341 Climbing Salt Lake Center
Tue 12:16:00 AM 42.4266 -113.6156 129° Southeast  Level Estimated
Tue 12:16:48 AM 42.5294 -113.7897 127° Southeast 93 107 9,800  Level Salt Lake Center
Tue 12:17:49 AM 42.5133 -113.7683 136° Southeast 86 99 10,100 295 Climbing Salt Lake Center
Tue 12:18:50 AM 42.4981 -113.7478 135° Southeast 81 93 10,400 195 Climbing Salt Lake Center
Tue 12:19:52 AM 42.4814 -113.7264 137° Southeast 81 93 10,500 146 Climbing Salt Lake Center
Tue 12:20:53 AM 42.4639 -113.7022 134° Southeast 86 99 10,700 246 Climbing Salt Lake Center
Tue 12:21:54 AM 42.4478 -113.6775 131° Southeast 89 102 11,000 293 Climbing Salt Lake Center
Tue 12:22:56 AM 42.4278 -113.6569 143° Southeast 90 104 11,300 293 Climbing Salt Lake Center
Tue 12:23:57 AM 42.4075 -113.6364 143° Southeast 91 105 11,600 246 Climbing Salt Lake Center
Tue 12:24:58 AM 42.3894 -113.6131 136° Southeast 90 104 11,800 197 Climbing Salt Lake Center
Tue 12:25:59 AM 42.3692 -113.5814 131° Southeast 93 107 12,000 195 Climbing Salt Lake Center
Tue 12:27:01 AM 42.3486 -113.5586 141° Southeast 94 108 12,200 49 Climbing Salt Lake Center
Tue 12:28:02 AM 42.3278 -113.5311 136° Southeast 101 116 12,100  Descending Salt Lake Center
Tue 12:29:03 AM 42.3111 -113.5014 127° Southeast 100 115 12,200  Climbing Salt Lake Center
Tue 12:30:05 AM 42.2936 -113.4703 127° Southeast 102 117 12,100 -49 Descending Salt Lake Center
Tue 12:31:06 AM 42.2719 -113.4433 137° Southeast 106 122 12,100  Level Salt Lake Center
Tue 12:32:07 AM 42.2514 -113.4172 137° Southeast 104 120 12,100 49 Level Salt Lake Center
Tue 12:33:08 AM 42.2319 -113.3906 135° Southeast 100 115 12,200 49 Climbing Salt Lake Center
Tue 12:34:10 AM 42.2103 -113.3642 138° Southeast 103 119 12,200  Level Salt Lake Center
Tue 12:35:11 AM 42.1833 -113.3328 139° Southeast 106 122 12,200  Level Salt Lake Center
Tue 12:36:12 AM 42.1608 -113.3072 140° Southeast 106 122 12,200  Level Salt Lake Center
Tue 12:37:14 AM 42.1378 -113.2836 143° Southeast 105 121 12,200 49 Level Salt Lake Center
Tue 12:38:15 AM 42.1144 -113.2547 137° Southeast 110 127 12,300 49 Climbing Salt Lake Center
Tue 12:39:16 AM 42.0947 -113.2250 132° Southeast 109 125 12,300 -49 Level Salt Lake Center
Tue 12:40:17 AM 42.0803 -113.1903 119° Southeast 105 121 12,200 -148 Descending Salt Lake Center
Tue 12:41:18 AM 42.0592 -113.1622 135° Southeast 107 123 12,000 -98 Descending Salt Lake Center
Tue 12:42:20 AM 42.0392 -113.1344 134° Southeast 103 119 12,000  Level Salt Lake Center
Tue 12:43:21 AM 42.0217 -113.1064 130° Southeast 100 115 12,000 49 Level Salt Lake Center
Tue 12:44:22 AM 42.0031 -113.0764 130° Southeast 103 119 12,100 49 Climbing Salt Lake Center
Tue 12:45:23 AM 41.9778 -113.0433 136° Southeast 105 121 12,100 49 Level Salt Lake Center
Tue 12:46:25 AM 41.9572 -113.0150 134° Southeast 106 122 12,200  Climbing Salt Lake Center
Tue 12:47:26 AM 41.9339 -112.9872 138° Southeast 108 124 12,100  Descending Salt Lake Center
Tue 12:48:27 AM 41.9108 -112.9589 138° Southeast 111 128 12,200 49 Climbing Salt Lake Center
Tue 12:49:28 AM 41.8881 -112.9300 137° Southeast 112 129 12,200 49 Level Salt Lake Center
Tue 12:50:29 AM 41.8667 -112.8981 132° Southeast 114 131 12,300 49 Climbing Salt Lake Center
Tue 12:51:31 AM 41.8433 -112.8681 136° Southeast 115 132 12,300 -49 Level Salt Lake Center
Tue 12:52:32 AM 41.8208 -112.8378 135° Southeast 115 132 12,200 -49 Descending Salt Lake Center
Tue 12:53:33 AM 41.7986 -112.8089 136° Southeast 114 131 12,200 49 Level Salt Lake Center
Tue 12:54:34 AM 41.7761 -112.7800 136° Southeast 113 130 12,300  Climbing Salt Lake Center
Tue 12:56:00 AM 41.7513 -112.7396 129° Southeast  Level FlightAware Approximate
Tue 12:57:38 AM 41.7064 -112.6931 129° Southeast 107 123 12,200  Level Salt Lake Center
Tue 12:58:39 AM 41.6833 -112.6644 137° Southeast 110 127 12,200  Level Salt Lake Center
Tue 12:59:40 AM 41.6619 -112.6358 135° Southeast 110 127 12,200 -49 Level Salt Lake Center
Tue 01:00:41 AM 41.6400 -112.6081 137° Southeast 109 125 12,100 -49 Descending Salt Lake Center
Tue 01:01:42 AM 41.6164 -112.5781 136° Southeast 107 123 12,100 56 Level Salt Lake Center
Tue 01:02:28 AM 41.6033 -112.5533 125° Southeast 106 122 12,200 50 Climbing Salt Lake Center
Tue 01:03:41 AM 41.5775 -112.5192 135° Southeast 108 124 12,200 -45 Level Salt Lake Center
Tue 01:04:42 AM 41.5547 -112.4897 136° Southeast 110 127 12,100 -149 Descending Salt Lake Center
Tue 01:05:42 AM 41.5319 -112.4600 136° Southeast 115 132 11,900 -99 Descending Salt Lake Center
Tue 01:06:43 AM 41.5092 -112.4306 136° Southeast 112 129 11,900 50 Level Salt Lake Center
Tue 01:07:43 AM 41.4889 -112.4031 135° Southeast 106 122 12,000  Climbing Salt Lake Center
Tue 01:08:44 AM 41.4706 -112.3750 131° Southeast 105 121 11,900 -49 Descending Salt Lake Center
Tue 01:09:45 AM 41.4517 -112.3442 129° Southeast 107 123 11,900 -149 Level Salt Lake Center
Tue 01:10:45 AM 41.4283 -112.3119 134° Southeast 108 124 11,600 -446 Descending Salt Lake Center
Tue 01:11:46 AM 41.4042 -112.2858 141° Southeast 113 130 11,000 -574 Descending Salt Lake Center
Tue 01:12:40 AM 41.3814 -112.2681 150° Southeast 117 135 10,500 -574 Descending Salt Lake Center
Tue 01:13:41 AM 41.3483 -112.2647 176° South 114 131 9,900 -590 Descending Salt Lake Center
Tue 01:14:42 AM 41.3192 -112.2575 169° South 107 123 9,300 -595 Descending Salt Lake Center
Tue 01:15:42 AM 41.2917 -112.2497 168° South 100 115 8,700 -595 Descending Salt Lake Center
Tue 01:16:43 AM 41.2650 -112.2444 172° South 97 112 8,100 -595 Descending Salt Lake Center
Tue 01:17:43 AM 41.2400 -112.2386 170° South 95 109 7,500 -545 Descending Salt Lake Center
Tue 01:18:44 AM 41.2147 -112.2300 166° South 91 105 7,000 -347 Descending Salt Lake Center
Tue 01:19:44 AM 41.1900 -112.2242 170° South 93 107 6,800 -261 Descending Salt Lake Center
Tue 01:21:02 AM 41.1522 -112.2169 172° South 102 117 6,400 -295 Descending Salt Lake Center
Tue 01:21:46 AM 41.1297 -112.2133 173° South 107 123 6,200 -173 Descending Salt Lake Center
Tue 01:22:46 AM 41.1044 -112.2047 166° South 99 114 6,100 -47 Descending Salt Lake Center
Tue 01:23:53 AM 41.0847 -112.1803 137° Southeast 95 109 6,100 -47 Level Salt Lake Center
Tue 01:24:54 AM 41.0931 -112.1461 72° East 104 120 6,000  Descending Salt Lake Center
Tue 01:25:54 AM 41.1133 -112.1164 48° Northeast 105 121 6,100 -50 Climbing Salt Lake Center
Tue 01:26:55 AM 41.1339 -112.0897 44° Northeast 96 110 5,900 -267 Descending Salt Lake Center
Tue 01:28:09 AM 41.1511 -112.0667 45° Northeast 88 101 5,500 -397 Descending Salt Lake Center
Tue 01:28:56 AM 41.1681 -112.0439 45° Northeast 86 99 5,100 -333 Descending Salt Lake Center
Tue 01:29:57 AM 41.1892 -112.0308 25° Northeast 89 102 4,900 -99 Descending Salt Lake Center
Tue 01:30:57 AM 41.2114 -112.0233 14° North 87 100 4,900 -222 Level Salt Lake Center
Tue 01:32:12 AM 41.1931 -112.0133 158° South 79 91 4,400 -400 Descending Salt Lake Center

Login

Don't have an account? Register now (free) for customized features, flight alerts, and more!